Pagrindinis puslapis
METAR-TAF:

METAR-TAF

Oro uostai :

Joensū, Suomija

platuma: 62-40N, ilguma: 029-38E, Aukštis: 119 m

Dabartinis oras

Ataskaita buvo paskelbta 24 minutes, ne 13:50 UTC
Vėjas 4 kt iš Šiaurės/Šiaurės Vakarų, svyruoja nuo Vakarų ir Šiaurės
Temperatūra -5°C
Drėgmė 73%
Slėgis 1010 hPa
Matomumas 10 km arba daugiau
Išsisklaidę debesys ne aukštis 1100 ft
Apsiniaukę ne aukštis 4400 ft
sniegas,

METAR: EFJO 201350Z AUTO 34004KT 280V010 9999 -SN SCT011 OVC044 M05/M09 Q1010

Laikas: 17:14 (14:14 UTC)

Prognozė

Ataskaita buvo paskelbta 5 valandos ir 19 minutes, ne 08:55 UTC
Prognozė galioja nuo 20 metu 09 UTC su 20 metu 12 UTC
Vėjas 7 kt iš Šiaurės
Matomumas: 2500 m
Su prošvaistėmis ne aukštis 1200 ft
sniegas
Tapsmas
nuo 20 metu 09 UTC su 20 metu 10 UTC
Matomumas: 4000 m
Su prošvaistėmis ne aukštis 1500 ft
Laikinai
nuo 20 metu 10 UTC su 20 metu 12 UTC
Matomumas: 8000 m
Su prošvaistėmis ne aukštis 1300 ft

TAF: EFJO 200855Z 2009/2012 36007KT 2500 -SN BKN012 BECMG 2009/2010 4000 BKN015 TEMPO 2010/2012 8000 BKN013

Orai ataskaitas ir orų prognozės (METAR, TAF).

turimą stotys yra geltonos ir raudonos taškus žemėlapyje.

Perkelti pele per norėdami pamatyti stoties vardą.

Tada spustelėkite, norėdami matyti oro stebėjimo ir prognozės.

Norėdami pakeisti žemėlapį: spustelėkite ant žalios mygtukų su juodo kryžiaus žemyn,; žalią mygtuką su brūkšneliu, jei norite nutolinti; arba žalių rodyklių gretimoms žemėlapius.


METAR-TAF: